Time;durP1;ratioP1;P1;durP2;ratioP2;P2;SDS_P1;SDS_P2;PMS_P1;PMS_P2;Temp;Humidity;BMP_temperature;BMP_pressure;BME280_temperature;BME280_humidity;BME280_pressure;Samples;Min_cycle;Max_cycle;Signal;HPM_P1;HPM_P2
2021/08/15 00:01:18;;;;;;;12.82;9.70;;;21.20;90.80;;;;;;4988339;28;20034;-66
2021/08/15 00:03:44;;;;;;;14.73;10.35;;;21.20;91.00;;;;;;4988066;28;20101;-66
2021/08/15 00:06:10;;;;;;;18.13;10.18;;;21.10;91.00;;;;;;4985301;28;20026;-67
2021/08/15 00:08:36;;;;;;;16.50;12.30;;;21.20;91.10;;;;;;4989741;28;20105;-68
2021/08/15 00:11:02;;;;;;;17.65;13.70;;;21.10;91.20;;;;;;4989312;28;20406;-67
2021/08/15 00:13:27;;;;;;;18.15;11.90;;;21.10;91.40;;;;;;4972351;28;20041;-68
2021/08/15 00:15:54;;;;;;;15.82;11.35;;;21.10;91.40;;;;;;4987899;28;20046;-66
2021/08/15 00:18:20;;;;;;;12.48;10.13;;;21.10;91.30;;;;;;4989553;28;20025;-65
2021/08/15 00:20:47;;;;;;;14.02;10.10;;;21.10;91.30;;;;;;4989029;28;20022;-67
2021/08/15 00:23:12;;;;;;;15.88;11.73;;;21.00;91.20;;;;;;4996804;28;20038;-65
2021/08/15 00:25:38;;;;;;;12.63;10.13;;;20.90;91.20;;;;;;4988114;28;20026;-65
2021/08/15 00:28:04;;;;;;;12.23;9.63;;;21.00;91.20;;;;;;4986936;28;20037;-69
2021/08/15 00:30:30;;;;;;;14.05;10.65;;;20.90;91.20;;;;;;4987011;28;20548;-65
2021/08/15 00:32:55;;;;;;;14.65;9.63;;;20.80;91.30;;;;;;4988706;28;20650;-66
2021/08/15 00:35:21;;;;;;;10.93;9.15;;;20.80;91.20;;;;;;4985894;28;20034;-66
2021/08/15 00:37:46;;;;;;;11.77;9.60;;;20.80;91.10;;;;;;4990099;28;20030;-66
2021/08/15 00:40:12;;;;;;;11.40;9.25;;;20.70;91.10;;;;;;4988306;28;20041;-66
2021/08/15 00:42:38;;;;;;;12.07;9.75;;;20.70;91.10;;;;;;4974100;28;20019;-66
2021/08/15 00:45:04;;;;;;;19.48;10.30;;;20.60;91.00;;;;;;4987097;28;20030;-65
2021/08/15 00:47:31;;;;;;;13.70;10.43;;;20.60;91.20;;;;;;4989177;28;20022;-65
2021/08/15 00:49:59;;;;;;;13.65;10.32;;;20.50;91.20;;;;;;4989258;28;20030;-66
2021/08/15 00:52:25;;;;;;;18.10;10.93;;;20.60;91.30;;;;;;4988367;28;20433;-66
2021/08/15 00:54:50;;;;;;;14.93;10.85;;;20.50;91.40;;;;;;4986407;28;20118;-68
2021/08/15 00:57:16;;;;;;;15.40;10.77;;;20.50;91.30;;;;;;4988851;28;20030;-66
2021/08/15 00:59:42;;;;;;;12.65;9.48;;;20.50;91.40;;;;;;4985424;28;20414;-65
2021/08/15 01:02:08;;;;;;;15.93;10.50;;;20.40;91.40;;;;;;4985598;28;20041;-67
2021/08/15 01:04:36;;;;;;;13.52;9.55;;;20.40;91.30;;;;;;4985462;28;20026;-67
2021/08/15 01:07:04;;;;;;;34.53;9.85;;;20.40;91.40;;;;;;4986732;28;20081;-67
2021/08/15 01:09:30;;;;;;;13.65;9.40;;;20.40;91.30;;;;;;4987546;28;20027;-66
2021/08/15 01:11:56;;;;;;;12.25;9.38;;;20.30;91.30;;;;;;4988288;28;20027;-65
2021/08/15 01:14:21;;;;;;;14.43;9.95;;;20.20;91.30;;;;;;4986431;28;20031;-66
2021/08/15 01:16:47;;;;;;;16.02;9.43;;;20.20;91.30;;;;;;4988386;28;20030;-68
2021/08/15 01:19:14;;;;;;;14.40;8.55;;;20.20;91.40;;;;;;4974374;28;20022;-66
2021/08/15 01:21:46;;;;;;;10.93;9.65;;;20.20;91.30;;;;;;4991289;28;20051;-65
2021/08/15 01:24:13;;;;;;;17.50;9.10;;;20.20;91.30;;;;;;4990611;28;20335;-66
2021/08/15 01:26:40;;;;;;;12.60;9.15;;;20.10;91.20;;;;;;4987663;28;20110;-66
2021/08/15 01:29:06;;;;;;;15.35;9.75;;;20.10;91.40;;;;;;4975211;28;20084;-65
2021/08/15 01:31:31;;;;;;;12.77;9.02;;;20.10;91.60;;;;;;4974571;28;20429;-67
2021/08/15 01:33:58;;;;;;;12.38;9.13;;;20.00;91.40;;;;;;4991941;28;20022;-65
2021/08/15 01:36:23;;;;;;;12.45;8.73;;;20.00;91.40;;;;;;4991506;28;20386;-65
2021/08/15 01:38:50;;;;;;;11.32;9.40;;;20.00;91.60;;;;;;4989895;28;20112;-66
2021/08/15 01:41:17;;;;;;;12.52;8.50;;;20.00;91.60;;;;;;4992244;28;20038;-66
2021/08/15 01:43:57;;;;;;;14.57;9.27;;;20.00;91.50;;;;;;4989778;28;20019;-66
2021/08/15 01:46:31;;;;;;;11.55;9.27;;;20.00;91.60;;;;;;4990605;28;20050;-65
2021/08/15 01:48:58;;;;;;;12.48;8.60;;;19.90;91.50;;;;;;4987898;28;20486;-66
2021/08/15 01:51:25;;;;;;;12.13;8.90;;;19.90;91.50;;;;;;4992840;28;20111;-68
2021/08/15 01:53:55;;;;;;;12.88;8.45;;;19.80;91.40;;;;;;4991973;28;20497;-67
2021/08/15 01:56:21;;;;;;;10.82;8.02;;;19.80;91.40;;;;;;4987672;28;20031;-66
2021/08/15 01:58:47;;;;;;;12.90;7.63;;;19.70;91.40;;;;;;4990912;28;20149;-65
2021/08/15 02:01:17;;;;;;;11.55;7.80;;;19.60;91.50;;;;;;4990880;28;20117;-68
2021/08/15 02:03:44;;;;;;;11.00;7.80;;;19.60;91.40;;;;;;4991141;28;20382;-65
2021/08/15 02:06:10;;;;;;;10.40;7.70;;;19.60;91.40;;;;;;4991518;28;20042;-67
2021/08/15 02:08:36;;;;;;;10.80;8.05;;;19.50;91.40;;;;;;4990888;28;20027;-66
2021/08/15 02:11:02;;;;;;;11.50;7.90;;;19.50;91.40;;;;;;4991161;28;20486;-65
2021/08/15 02:13:27;;;;;;;12.55;8.35;;;19.50;91.60;;;;;;4991555;28;20388;-65
2021/08/15 02:15:53;;;;;;;10.07;7.32;;;19.50;92.00;;;;;;4991032;28;20023;-67
2021/08/15 02:18:19;;;;;;;10.73;7.82;;;19.50;91.70;;;;;;4973719;28;20788;-65
2021/08/15 02:20:44;;;;;;;10.60;7.97;;;19.50;91.80;;;;;;4990981;28;20030;-65
2021/08/15 02:23:11;;;;;;;11.13;8.18;;;19.50;91.90;;;;;;4990647;28;20116;-65
2021/08/15 02:25:37;;;;;;;13.57;8.98;;;19.50;91.90;;;;;;4989876;28;20031;-67
2021/08/15 02:28:04;;;;;;;12.48;8.32;;;19.50;91.80;;;;;;4991092;28;20105;-65
2021/08/15 02:30:30;;;;;;;10.82;8.23;;;19.50;91.80;;;;;;4985737;28;20494;-67
2021/08/15 02:32:55;;;;;;;11.05;7.82;;;19.50;91.70;;;;;;5004327;28;20084;-67
2021/08/15 02:35:21;;;;;;;11.88;7.63;;;19.40;91.60;;;;;;4992367;28;20026;-66
2021/08/15 02:37:50;;;;;;;12.13;8.07;;;19.40;91.60;;;;;;4988506;28;20386;-65
2021/08/15 02:40:17;;;;;;;12.43;7.85;;;19.30;91.80;;;;;;4988896;28;20110;-66
2021/08/15 02:42:44;;;;;;;11.32;7.20;;;19.30;91.80;;;;;;4991886;28;20026;-65
2021/08/15 02:45:12;;;;;;;9.10;8.10;;;19.30;91.90;;;;;;4985953;28;20107;-66
2021/08/15 02:47:38;;;;;;;9.93;8.13;;;19.30;91.90;;;;;;4991636;28;20018;-66
2021/08/15 02:50:05;;;;;;;12.43;8.68;;;19.30;92.00;;;;;;4990834;28;20512;-66
2021/08/15 02:52:31;;;;;;;9.30;7.80;;;19.30;91.90;;;;;;4989445;28;20038;-66
2021/08/15 02:54:56;;;;;;;12.05;8.45;;;19.30;91.70;;;;;;4989105;28;20076;-66
2021/08/15 02:57:23;;;;;;;12.40;8.27;;;19.20;91.70;;;;;;4991506;28;20106;-66
2021/08/15 02:59:49;;;;;;;10.60;8.32;;;19.20;91.70;;;;;;4990017;28;20026;-67
2021/08/15 03:02:19;;;;;;;10.38;8.50;;;19.10;91.70;;;;;;4985160;28;20161;-67
2021/08/15 03:04:46;;;;;;;11.60;8.13;;;19.10;91.90;;;;;;4987985;28;20436;-66
2021/08/15 03:07:16;;;;;;;13.45;9.40;;;19.10;91.90;;;;;;4990677;28;20022;-68
2021/08/15 03:09:43;;;;;;;12.35;8.48;;;19.00;91.90;;;;;;4994306;28;20029;-67
2021/08/15 03:12:08;;;;;;;11.55;8.60;;;19.00;91.90;;;;;;4974214;28;20120;-66
2021/08/15 03:14:34;;;;;;;11.95;8.85;;;19.00;92.10;;;;;;4989407;28;20132;-68
2021/08/15 03:17:00;;;;;;;13.38;8.65;;;19.00;92.20;;;;;;4987532;28;20929;-66
2021/08/15 03:19:25;;;;;;;12.75;8.85;;;19.00;92.10;;;;;;4988649;28;20026;-66
2021/08/15 03:21:51;;;;;;;10.82;8.75;;;19.00;92.10;;;;;;4992028;28;20118;-66
2021/08/15 03:24:16;;;;;;;14.65;9.43;;;19.00;92.10;;;;;;4973348;28;20415;-67
2021/08/15 03:26:46;;;;;;;12.38;9.77;;;19.00;92.10;;;;;;4988488;28;20030;-66
2021/08/15 03:29:13;;;;;;;12.38;8.45;;;19.00;92.20;;;;;;4993317;23;20413;-69
2021/08/15 03:31:39;;;;;;;10.48;8.63;;;19.00;92.30;;;;;;4986440;28;20524;-71
2021/08/15 03:34:04;;;;;;;11.68;9.20;;;18.90;92.30;;;;;;4990633;28;20031;-69
2021/08/15 03:36:30;;;;;;;10.50;8.63;;;18.90;92.30;;;;;;4988543;28;20041;-69
2021/08/15 03:38:56;;;;;;;10.80;9.10;;;18.90;92.20;;;;;;4989179;28;20030;-69
2021/08/15 03:41:21;;;;;;;10.98;8.73;;;18.90;92.20;;;;;;4988270;28;20018;-66
2021/08/15 03:43:47;;;;;;;12.00;9.15;;;18.90;92.30;;;;;;4990236;28;20038;-67
2021/08/15 03:46:12;;;;;;;14.55;9.35;;;18.90;92.40;;;;;;4987714;28;20035;-68
2021/08/15 03:48:38;;;;;;;14.27;10.25;;;18.90;92.40;;;;;;4972361;28;20458;-69
2021/08/15 03:51:04;;;;;;;12.02;9.57;;;18.90;92.40;;;;;;4983469;28;20027;-71
2021/08/15 03:53:29;;;;;;;11.95;9.70;;;18.90;92.40;;;;;;4989717;28;20038;-70
2021/08/15 03:55:55;;;;;;;12.73;9.38;;;18.90;92.40;;;;;;4988818;28;20486;-71
2021/08/15 03:58:21;;;;;;;12.18;9.60;;;18.80;92.40;;;;;;4990246;28;20041;-71
2021/08/15 04:00:46;;;;;;;15.05;9.45;;;18.90;92.30;;;;;;4987445;28;20479;-70
2021/08/15 04:03:15;;;;;;;13.27;9.70;;;18.80;92.40;;;;;;4986973;28;20530;-70
2021/08/15 04:05:41;;;;;;;15.95;9.50;;;18.80;92.40;;;;;;4986627;28;20054;-71
2021/08/15 04:08:07;;;;;;;16.02;10.05;;;18.70;92.40;;;;;;4994851;28;21846;-70
2021/08/15 04:10:34;;;;;;;11.95;9.48;;;18.70;92.40;;;;;;4991795;28;20041;-71
2021/08/15 04:13:00;;;;;;;13.68;10.32;;;18.70;92.40;;;;;;4989515;28;20026;-71
2021/08/15 04:15:26;;;;;;;12.93;9.32;;;18.60;92.40;;;;;;4986430;28;20045;-69
2021/08/15 04:17:52;;;;;;;14.00;10.02;;;18.60;92.40;;;;;;4989899;28;20533;-69
2021/08/15 04:20:18;;;;;;;14.00;9.57;;;18.60;92.40;;;;;;4990298;28;20038;-69
2021/08/15 04:22:43;;;;;;;13.27;9.18;;;18.50;92.50;;;;;;4985340;28;20022;-71
2021/08/15 04:25:09;;;;;;;13.80;8.95;;;18.50;92.60;;;;;;4985427;28;20070;-69
2021/08/15 04:27:35;;;;;;;12.23;8.63;;;18.50;92.50;;;;;;4988463;28;20032;-71
2021/08/15 04:30:02;;;;;;;11.95;9.98;;;18.50;92.50;;;;;;4986278;28;20030;-70
2021/08/15 04:32:27;;;;;;;13.02;10.32;;;18.50;92.60;;;;;;4987694;28;20487;-71
2021/08/15 04:34:53;;;;;;;14.77;10.40;;;18.50;92.60;;;;;;4987497;28;20041;-71
2021/08/15 04:37:19;;;;;;;12.55;9.23;;;18.50;92.70;;;;;;4990594;28;20022;-70
2021/08/15 04:39:45;;;;;;;14.05;9.88;;;18.50;92.70;;;;;;4989030;28;20100;-71
2021/08/15 04:42:11;;;;;;;15.90;10.13;;;18.60;92.70;;;;;;4989745;28;20550;-71
2021/08/15 04:44:37;;;;;;;14.05;8.52;;;18.50;92.70;;;;;;4987063;28;20034;-69
2021/08/15 04:47:03;;;;;;;14.60;8.82;;;18.50;92.70;;;;;;4989097;28;20092;-70
2021/08/15 04:49:29;;;;;;;11.50;9.85;;;18.50;92.60;;;;;;4987504;28;20105;-71
2021/08/15 04:51:55;;;;;;;14.07;10.00;;;18.50;92.60;;;;;;4986892;28;20038;-71
2021/08/15 04:54:25;;;;;;;12.52;9.88;;;18.50;92.70;;;;;;4987006;28;20677;-69
2021/08/15 04:56:50;;;;;;;14.15;9.57;;;18.50;92.80;;;;;;4987639;28;20026;-71
2021/08/15 04:59:16;;;;;;;13.25;9.65;;;18.50;92.80;;;;;;4986755;28;20027;-71
2021/08/15 05:01:41;;;;;;;17.63;9.55;;;18.50;92.70;;;;;;4988878;28;20121;-70
2021/08/15 05:04:07;;;;;;;11.45;7.95;;;18.50;92.70;;;;;;4988090;28;20034;-71
2021/08/15 05:06:33;;;;;;;18.60;11.70;;;18.50;92.80;;;;;;4986829;28;20038;-71
2021/08/15 05:08:58;;;;;;;14.93;11.23;;;18.50;93.00;;;;;;4988780;28;20216;-71
2021/08/15 05:11:24;;;;;;;16.17;12.25;;;18.50;92.90;;;;;;4990883;28;20122;-70
2021/08/15 05:13:50;;;;;;;18.92;11.77;;;18.50;92.90;;;;;;4986795;28;20023;-70
2021/08/15 05:16:16;;;;;;;14.90;11.80;;;18.60;93.10;;;;;;4988647;28;20022;-69
2021/08/15 05:18:41;;;;;;;15.80;12.45;;;18.60;93.10;;;;;;4988198;28;20033;-71
2021/08/15 05:21:07;;;;;;;20.80;13.02;;;18.60;93.10;;;;;;4987720;28;20022;-70
2021/08/15 05:23:33;;;;;;;15.68;12.45;;;18.60;93.10;;;;;;4970276;28;20144;-71
2021/08/15 05:25:59;;;;;;;21.45;13.65;;;18.70;93.20;;;;;;4985791;28;20030;-70
2021/08/15 05:28:24;;;;;;;16.27;12.45;;;18.70;93.30;;;;;;4981475;28;20058;-71
2021/08/15 05:30:50;;;;;;;17.70;12.80;;;18.80;93.30;;;;;;4979816;28;20139;-67
2021/08/15 05:33:15;;;;;;;12.75;10.98;;;18.80;93.30;;;;;;4986880;28;20038;-69
2021/08/15 05:35:41;;;;;;;17.15;12.77;;;18.80;93.30;;;;;;4985753;28;20031;-69
2021/08/15 05:38:06;;;;;;;15.63;11.80;;;18.90;93.40;;;;;;4983444;28;20102;-69
2021/08/15 05:40:32;;;;;;;18.23;12.00;;;18.90;93.30;;;;;;4966090;28;20034;-68
2021/08/15 05:42:58;;;;;;;15.55;12.00;;;19.00;93.40;;;;;;4968737;28;20478;-70
2021/08/15 05:45:23;;;;;;;13.35;11.15;;;19.00;93.40;;;;;;4986905;28;20549;-69
2021/08/15 05:47:49;;;;;;;11.98;9.45;;;19.00;93.40;;;;;;4990403;28;20035;-68
2021/08/15 05:50:14;;;;;;;11.93;10.63;;;19.10;93.40;;;;;;4987173;28;20032;-68
2021/08/15 05:52:40;;;;;;;17.50;11.18;;;19.10;93.40;;;;;;4983184;28;20541;-73
2021/08/15 05:55:06;;;;;;;14.38;11.75;;;19.10;93.40;;;;;;4984299;28;20105;-74
2021/08/15 05:57:33;;;;;;;17.73;12.15;;;19.20;93.40;;;;;;4989431;28;20042;-74
2021/08/15 05:59:58;;;;;;;16.88;12.00;;;19.20;93.40;;;;;;4987391;28;20486;-74
2021/08/15 06:02:24;;;;;;;16.85;10.85;;;19.20;93.50;;;;;;4987029;28;20077;-74
2021/08/15 06:04:49;;;;;;;17.38;13.10;;;19.20;93.40;;;;;;4970114;28;20438;-75
2021/08/15 06:07:15;;;;;;;18.45;12.68;;;19.30;93.40;;;;;;4973225;28;20030;-71
2021/08/15 06:09:40;;;;;;;18.88;12.88;;;19.30;93.30;;;;;;4985130;28;20045;-72
2021/08/15 06:12:06;;;;;;;19.35;13.50;;;19.30;93.30;;;;;;4993285;28;20030;-72
2021/08/15 06:14:35;;;;;;;15.43;12.45;;;19.30;93.30;;;;;;4992685;28;20077;-72
2021/08/15 06:17:01;;;;;;;18.35;11.60;;;19.30;93.50;;;;;;4993040;28;22013;-72
2021/08/15 06:19:27;;;;;;;16.48;12.35;;;19.30;93.50;;;;;;4992741;28;20038;-72
2021/08/15 06:21:52;;;;;;;15.80;11.68;;;19.30;93.50;;;;;;4992703;28;20154;-72
2021/08/15 06:24:18;;;;;;;18.50;12.15;;;19.30;93.60;;;;;;4992300;28;20042;-72
2021/08/15 06:26:44;;;;;;;24.10;12.13;;;19.30;93.70;;;;;;4991082;28;20034;-72
2021/08/15 06:29:09;;;;;;;15.52;10.13;;;19.40;93.70;;;;;;4991029;28;20042;-72
2021/08/15 06:31:35;;;;;;;17.50;11.38;;;19.40;93.80;;;;;;4992689;28;20684;-72
2021/08/15 06:34:01;;;;;;;13.35;10.88;;;19.50;93.80;;;;;;4991623;28;20372;-72
2021/08/15 06:36:26;;;;;;;17.77;12.40;;;19.50;93.90;;;;;;4989007;28;20110;-72
2021/08/15 06:38:52;;;;;;;15.65;12.43;;;19.60;93.90;;;;;;4991885;28;20029;-72
2021/08/15 06:41:18;;;;;;;15.70;11.52;;;19.60;93.90;;;;;;4992769;28;20759;-72
2021/08/15 06:43:44;;;;;;;11.52;10.32;;;19.70;93.90;;;;;;4992935;28;20026;-72
2021/08/15 06:46:10;;;;;;;13.52;11.10;;;19.80;93.80;;;;;;4990033;28;20022;-72
2021/08/15 06:48:35;;;;;;;12.00;9.90;;;19.90;93.90;;;;;;4992924;28;20026;-72
2021/08/15 06:51:01;;;;;;;14.30;11.48;;;19.90;93.90;;;;;;4992403;28;20049;-72
2021/08/15 06:53:28;;;;;;;14.45;11.52;;;20.00;93.80;;;;;;4992275;28;20034;-72
2021/08/15 06:55:54;;;;;;;17.30;11.63;;;20.10;93.70;;;;;;4991265;28;20026;-72
2021/08/15 06:58:20;;;;;;;13.65;11.88;;;20.20;93.70;;;;;;4990287;28;20025;-72
2021/08/15 07:00:46;;;;;;;13.55;10.70;;;20.20;93.60;;;;;;4992026;28;20018;-72
2021/08/15 07:03:11;;;;;;;15.80;11.50;;;20.30;93.60;;;;;;4992954;28;20038;-72
2021/08/15 07:05:37;;;;;;;15.02;11.98;;;20.40;93.60;;;;;;4991433;28;20061;-72
2021/08/15 07:08:03;;;;;;;17.83;12.35;;;20.40;93.60;;;;;;4989837;28;20538;-71
2021/08/15 07:10:28;;;;;;;16.02;10.93;;;20.50;93.50;;;;;;4992102;28;20030;-72
2021/08/15 07:12:55;;;;;;;14.90;10.63;;;20.50;93.40;;;;;;4973968;28;20034;-72
2021/08/15 07:15:31;;;;;;;14.55;11.02;;;20.60;93.40;;;;;;4973553;28;20022;-72
2021/08/15 07:17:57;;;;;;;12.90;10.48;;;20.70;93.40;;;;;;4992104;28;20022;-72
2021/08/15 07:20:24;;;;;;;13.88;11.10;;;20.80;93.30;;;;;;4992298;28;20022;-72
2021/08/15 07:22:50;;;;;;;16.17;11.43;;;20.90;93.30;;;;;;4991493;28;20034;-72
2021/08/15 07:25:16;;;;;;;16.73;11.63;;;21.10;93.20;;;;;;4990520;28;20164;-72
2021/08/15 07:27:42;;;;;;;13.13;10.88;;;21.30;93.10;;;;;;4988671;28;20042;-72
2021/08/15 07:30:08;;;;;;;15.93;11.30;;;21.60;92.90;;;;;;4991799;28;20038;-72
2021/08/15 07:32:34;;;;;;;11.73;10.05;;;21.90;92.70;;;;;;4991876;28;20511;-72
2021/08/15 07:35:02;;;;;;;16.45;10.32;;;22.20;92.40;;;;;;4990234;28;20045;-72
2021/08/15 07:37:29;;;;;;;12.75;10.10;;;22.50;92.10;;;;;;4970909;28;20391;-72
2021/08/15 07:39:54;;;;;;;15.75;10.50;;;22.90;91.80;;;;;;4990324;28;20458;-72
2021/08/15 07:42:20;;;;;;;10.13;8.80;;;23.20;91.40;;;;;;4991676;28;20109;-72
2021/08/15 07:44:47;;;;;;;11.25;8.82;;;23.60;91.10;;;;;;4990724;28;20034;-72
2021/08/15 07:47:13;;;;;;;13.32;8.63;;;23.90;90.50;;;;;;4991018;28;20089;-72
2021/08/15 07:49:38;;;;;;;10.40;7.45;;;24.30;90.10;;;;;;4992367;28;20034;-74
2021/08/15 07:52:04;;;;;;;12.20;8.50;;;24.60;89.40;;;;;;4991573;28;20066;-73
2021/08/15 07:54:30;;;;;;;10.00;7.88;;;25.00;88.40;;;;;;4989255;28;20058;-72
2021/08/15 07:56:56;;;;;;;11.13;8.35;;;25.30;87.40;;;;;;4990854;28;20110;-72
2021/08/15 07:59:21;;;;;;;9.70;7.55;;;25.60;86.40;;;;;;4971720;28;20022;-72
2021/08/15 08:01:47;;;;;;;10.40;8.05;;;25.90;85.20;;;;;;4971811;28;20486;-72
2021/08/15 08:04:12;;;;;;;12.25;8.30;;;26.20;84.40;;;;;;4992259;28;20549;-73
2021/08/15 08:06:38;;;;;;;9.65;7.85;;;26.60;83.40;;;;;;4990099;28;20031;-73
2021/08/15 08:09:04;;;;;;;11.65;8.15;;;26.90;82.60;;;;;;4991883;28;20034;-72
2021/08/15 08:11:29;;;;;;;10.65;7.13;;;27.30;81.60;;;;;;4990530;28;20026;-72
2021/08/15 08:13:55;;;;;;;11.30;7.50;;;27.70;80.90;;;;;;4991655;28;20391;-72
2021/08/15 08:16:20;;;;;;;10.65;6.68;;;28.00;80.20;;;;;;4989794;28;20411;-72
2021/08/15 08:18:49;;;;;;;9.50;6.60;;;28.40;79.10;;;;;;4991735;28;20083;-72
2021/08/15 08:21:15;;;;;;;8.07;6.07;;;28.70;78.30;;;;;;4990698;28;20025;-72
2021/08/15 08:23:40;;;;;;;11.57;6.80;;;29.00;77.10;;;;;;4991594;28;20030;-72
2021/08/15 08:26:06;;;;;;;11.93;6.47;;;29.30;76.10;;;;;;4990000;28;20026;-72
2021/08/15 08:28:32;;;;;;;8.77;6.10;;;29.60;74.70;;;;;;4988672;28;20042;-74
2021/08/15 08:30:57;;;;;;;8.18;5.90;;;29.80;73.70;;;;;;4973775;28;20121;-74
2021/08/15 08:33:23;;;;;;;7.50;6.28;;;30.00;72.70;;;;;;4991842;28;20467;-74
2021/08/15 08:35:48;;;;;;;11.68;5.80;;;30.30;71.40;;;;;;4987782;28;20026;-73
2021/08/15 08:38:14;;;;;;;9.40;5.68;;;30.60;70.60;;;;;;4990598;28;20787;-73
2021/08/15 08:40:42;;;;;;;11.98;6.10;;;31.00;69.60;;;;;;4990655;28;20029;-74
2021/08/15 08:43:07;;;;;;;8.70;5.53;;;31.30;68.50;;;;;;4991038;28;20038;-73
2021/08/15 08:45:39;;;;;;;12.23;6.38;;;31.50;67.70;;;;;;4989251;28;20037;-70
2021/08/15 08:48:05;;;;;;;7.18;5.65;;;31.60;66.10;;;;;;4990009;28;20043;-69
2021/08/15 08:50:31;;;;;;;8.38;6.07;;;31.80;66.20;;;;;;4990997;28;20493;-69
2021/08/15 08:52:57;;;;;;;6.15;5.55;;;31.90;65.60;;;;;;4990850;28;20034;-69
2021/08/15 08:55:23;;;;;;;8.60;5.25;;;32.10;65.40;;;;;;4990001;28;20034;-69
2021/08/15 08:57:48;;;;;;;8.60;5.70;;;32.20;65.00;;;;;;4990789;28;20026;-69
2021/08/15 09:00:16;;;;;;;8.57;5.50;;;32.10;64.80;;;;;;4990530;28;20049;-69
2021/08/15 09:02:41;;;;;;;6.93;5.43;;;32.10;64.50;;;;;;4991029;28;20026;-69
2021/08/15 09:05:08;;;;;;;10.73;6.45;;;31.90;64.20;;;;;;4989868;28;20541;-69
2021/08/15 09:07:37;;;;;;;7.05;5.40;;;31.70;64.30;;;;;;4991121;28;20026;-70
2021/08/15 09:10:06;;;;;;;6.97;4.88;;;31.70;64.80;;;;;;4990562;28;20033;-70
2021/08/15 09:12:48;;;;;;;7.07;5.22;;;31.70;65.30;;;;;;4990622;28;20614;-70
2021/08/15 09:15:19;;;;;;;7.28;5.47;;;31.90;64.90;;;;;;4989737;28;20483;-69
2021/08/15 09:17:45;;;;;;;;;;;32.00;64.40;;;;;;4991042;28;20042;-70
2021/08/15 09:20:14;;;;;;;10.38;5.15;;;32.20;66.70;;;;;;4991050;28;19906;-70
2021/08/15 09:22:40;;;;;;;9.20;4.80;;;32.20;63.80;;;;;;4971856;28;20030;-70
2021/08/15 09:25:12;;;;;;;10.85;5.00;;;32.10;62.70;;;;;;4979560;28;20802;-70
2021/08/15 09:27:46;;;;;;;8.20;5.13;;;32.00;63.20;;;;;;4978903;28;20543;-70
2021/08/15 09:30:27;;;;;;;6.18;5.45;;;32.10;64.10;;;;;;5069945;23;20046;-66
2021/08/15 09:33:19;;;;;;;7.05;5.18;;;32.30;63.10;;;;;;5010352;28;20033;-66
2021/08/15 09:35:49;;;;;;;6.65;4.72;;;32.20;63.10;;;;;;5010273;28;20038;-67
2021/08/15 09:38:17;;;;;;;7.47;5.25;;;32.00;62.40;;;;;;5010302;28;20362;-67
2021/08/15 09:40:51;;;;;;;10.30;5.55;;;31.80;63.10;;;;;;5013259;28;20032;-67
2021/08/15 09:43:22;;;;;;;7.03;5.32;;;31.70;62.50;;;;;;4996281;28;20036;-67
2021/08/15 09:45:53;;;;;;;7.93;5.93;;;31.60;63.20;;;;;;5012600;28;20049;-67
2021/08/15 09:48:34;;;;;;;6.85;5.63;;;31.60;63.10;;;;;;5010850;28;20075;-67
2021/08/15 09:51:12;;;;;;;;;;;31.40;62.10;;;;;;4979737;28;20215;-67
2021/08/15 09:53:44;;;;;;;7.88;5.30;;;31.30;65.60;;;;;;5025503;28;19999;-67
2021/08/15 09:56:11;;;;;;;6.93;5.22;;;31.20;64.70;;;;;;4993472;28;20058;-67
2021/08/15 09:58:37;;;;;;;7.45;5.28;;;31.20;65.00;;;;;;5012634;28;20076;-67
2021/08/15 10:01:06;;;;;;;5.65;5.05;;;31.40;64.70;;;;;;5013238;28;20109;-67
2021/08/15 10:03:34;;;;;;;6.45;5.13;;;31.60;63.50;;;;;;5014253;28;20033;-67
2021/08/15 10:06:00;;;;;;;5.97;5.22;;;31.60;63.30;;;;;;5012497;28;20101;-67
2021/08/15 10:08:25;;;;;;;8.38;5.38;;;31.70;63.90;;;;;;5013629;28;20082;-68
2021/08/15 10:10:51;;;;;;;8.48;5.13;;;31.90;63.20;;;;;;5013725;28;20113;-67
2021/08/15 10:13:17;;;;;;;9.07;5.05;;;32.10;63.20;;;;;;5012975;28;20088;-67
2021/08/15 10:15:54;;;;;;;5.85;4.93;;;32.10;63.40;;;;;;5012756;28;20018;-67
2021/08/15 10:18:21;;;;;;;6.75;5.10;;;32.20;61.20;;;;;;5013323;28;20389;-67
2021/08/15 10:20:48;;;;;;;16.27;5.20;;;32.00;62.10;;;;;;5013694;28;20037;-67
2021/08/15 10:23:14;;;;;;;5.93;4.80;;;32.00;62.30;;;;;;4993951;28;20018;-67
2021/08/15 10:25:42;;;;;;;7.32;4.95;;;32.00;62.50;;;;;;5004286;28;20075;-67
2021/08/15 10:28:29;;;;;;;6.13;5.40;;;32.10;62.40;;;;;;4996927;28;20027;-67
2021/08/15 10:30:56;;;;;;;6.95;5.38;;;32.20;61.50;;;;;;5012279;28;20433;-67
2021/08/15 10:33:24;;;;;;;7.90;5.68;;;32.20;61.50;;;;;;5013644;28;20036;-67
2021/08/15 10:36:14;;;;;;;6.68;4.82;;;32.20;61.40;;;;;;5011538;28;20045;-67
2021/08/15 10:38:40;;;;;;;8.07;4.82;;;32.10;60.80;;;;;;5013288;28;20025;-67
2021/08/15 10:41:06;;;;;;;8.90;5.30;;;31.90;61.20;;;;;;5010953;28;20018;-67
2021/08/15 10:43:31;;;;;;;5.55;4.60;;;31.90;61.00;;;;;;5012747;28;20390;-67
2021/08/15 10:46:08;;;;;;;10.18;5.22;;;31.70;61.00;;;;;;5011003;28;20033;-67
2021/08/15 10:49:08;;;;;;;6.60;5.20;;;31.60;60.30;;;;;;5012517;28;20068;-67
2021/08/15 10:51:50;;;;;;;6.30;4.88;;;31.50;60.40;;;;;;5012568;28;20030;-67
2021/08/15 10:54:35;;;;;;;;;;;31.30;61.50;;;;;;4995978;28;20022;-66
2021/08/15 10:57:04;;;;;;;8.82;5.72;;;31.20;62.90;;;;;;4980805;28;19921;-67
2021/08/15 10:59:38;;;;;;;9.30;5.43;;;31.00;61.90;;;;;;5012033;28;20105;-67
2021/08/15 11:02:10;;;;;;;8.25;5.45;;;30.80;62.20;;;;;;4994724;28;20504;-66
2021/08/15 11:04:37;;;;;;;7.00;5.53;;;30.80;63.30;;;;;;5011857;28;20022;-67
2021/08/15 11:07:02;;;;;;;7.05;5.25;;;30.80;63.30;;;;;;5012034;28;20088;-66
2021/08/15 11:09:55;;;;;;;10.02;5.78;;;30.80;63.40;;;;;;5012948;28;20034;-67
2021/08/15 11:12:21;;;;;;;9.38;5.63;;;30.90;63.20;;;;;;5012715;28;20026;-66
2021/08/15 11:15:03;;;;;;;8.45;6.05;;;30.90;63.40;;;;;;5010938;28;20113;-67
2021/08/15 11:17:31;;;;;;;5.53;5.03;;;30.80;62.50;;;;;;5011958;28;20477;-66
2021/08/15 11:20:34;;;;;;;9.48;5.45;;;30.70;62.40;;;;;;5012636;28;20022;-67
2021/08/15 11:23:20;;;;;;;10.13;5.72;;;30.60;62.50;;;;;;4993037;28;20033;-66
2021/08/15 11:25:47;;;;;;;7.25;5.85;;;30.50;62.40;;;;;;4995962;28;20036;-67
2021/08/15 11:28:14;;;;;;;10.60;6.20;;;30.40;62.70;;;;;;5003611;28;20034;-67
2021/08/15 11:30:40;;;;;;;8.15;5.78;;;30.30;63.40;;;;;;5012235;28;20030;-66
2021/08/15 11:33:08;;;;;;;6.75;5.15;;;30.20;63.90;;;;;;4994648;28;20036;-67
2021/08/15 11:35:43;;;;;;;8.85;5.65;;;30.20;64.70;;;;;;5010884;28;20542;-67
2021/08/15 11:38:11;;;;;;;7.68;5.80;;;30.10;64.00;;;;;;5012172;28;20375;-66
2021/08/15 11:40:43;;;;;;;13.45;7.80;;;30.10;64.90;;;;;;5010894;28;20049;-67
2021/08/15 11:43:14;;;;;;;;;;;30.10;65.00;;;;;;5008342;28;20049;-67
2021/08/15 11:45:43;;;;;;;8.52;5.95;;;30.20;65.60;;;;;;5010761;28;19956;-66
2021/08/15 11:48:14;;;;;;;8.75;5.88;;;30.30;64.90;;;;;;5012052;28;20030;-66
2021/08/15 11:50:43;;;;;;;8.13;5.28;;;30.30;64.50;;;;;;5011680;28;20025;-66
2021/08/15 11:53:30;;;;;;;8.70;6.53;;;30.40;64.60;;;;;;4994364;28;20139;-66
2021/08/15 11:56:18;;;;;;;12.95;5.85;;;30.40;64.50;;;;;;5010029;28;20058;-66
2021/08/15 11:59:03;;;;;;;7.60;6.05;;;30.30;64.50;;;;;;5004134;28;20030;-66
2021/08/15 12:01:30;;;;;;;11.35;5.80;;;30.10;64.80;;;;;;5011153;28;20014;-66
2021/08/15 12:04:02;;;;;;;10.10;5.72;;;30.10;64.50;;;;;;4994173;28;20430;-66
2021/08/15 12:06:29;;;;;;;10.70;5.90;;;30.00;65.40;;;;;;5010395;28;20489;-66
2021/08/15 12:08:54;;;;;;;8.98;5.88;;;30.00;65.70;;;;;;5011157;28;20116;-66
2021/08/15 12:11:24;;;;;;;10.02;5.82;;;29.90;66.40;;;;;;5011718;28;20057;-66
2021/08/15 12:13:52;;;;;;;10.23;6.20;;;29.90;67.10;;;;;;5011177;28;20080;-66
2021/08/15 12:16:22;;;;;;;6.75;5.60;;;29.90;67.50;;;;;;5010357;28;20101;-66
2021/08/15 12:18:47;;;;;;;9.20;5.97;;;30.00;67.40;;;;;;5008348;28;20018;-67
2021/08/15 12:21:19;;;;;;;14.75;6.13;;;30.10;66.80;;;;;;5010039;28;20030;-68
2021/08/15 12:24:01;;;;;;;10.55;6.07;;;30.30;66.80;;;;;;5009397;28;20034;-68
2021/08/15 12:26:33;;;;;;;8.60;5.80;;;30.30;66.60;;;;;;5008408;28;20030;-69
2021/08/15 12:29:02;;;;;;;8.25;5.90;;;30.50;66.40;;;;;;5006947;28;20026;-67
2021/08/15 12:31:30;;;;;;;10.88;6.07;;;30.60;66.30;;;;;;5008785;28;20034;-67
2021/08/15 12:34:08;;;;;;;7.50;5.55;;;30.80;65.40;;;;;;5007213;28;20433;-67
2021/08/15 12:36:49;;;;;;;9.60;5.70;;;30.70;65.20;;;;;;5008322;28;20025;-68
2021/08/15 12:39:15;;;;;;;7.80;5.97;;;30.80;65.20;;;;;;4992365;28;20055;-67
2021/08/15 12:42:01;;;;;;;7.50;5.50;;;30.80;64.70;;;;;;5010594;28;20026;-67